createdAt,value
2019-06-01T00:00:18.768Z,94941.56
2019-06-01T00:02:55.457Z,94917.84
2019-06-01T00:05:21.889Z,94919.59
2019-06-01T00:07:52.125Z,94812.26
2019-06-01T00:10:24.170Z,94868.02
2019-06-01T00:12:54.021Z,94898.35
2019-06-01T00:15:26.252Z,94911.78
2019-06-01T00:17:57.528Z,94890.53
2019-06-01T00:20:27.619Z,94826.02
2019-06-01T00:22:59.622Z,94787.59
2019-06-01T00:25:31.902Z,94667.95
2019-06-01T00:28:04.806Z,94630.32
2019-06-01T00:30:35.341Z,94661.63
2019-06-01T00:33:06.742Z,94669.70
2019-06-01T00:35:36.495Z,94612.89
2019-06-01T00:38:08.517Z,94665.58
2019-06-01T00:40:41.738Z,94529.48
2019-06-01T00:43:14.100Z,94523.59
2019-06-01T00:45:44.451Z,94567.80
2019-06-01T00:48:15.320Z,94593.97
2019-06-01T00:50:45.303Z,94478.48
2019-06-01T00:53:15.477Z,94470.09
2019-06-01T00:55:47.393Z,94474.41
2019-06-01T00:58:17.235Z,94400.16
2019-06-01T01:00:47.806Z,94310.48
2019-06-01T01:03:20.791Z,94218.17
2019-06-01T01:05:54.795Z,94214.59
2019-06-01T01:08:25.759Z,94147.00
2019-06-01T01:10:55.725Z,94206.16
2019-06-01T01:13:28.106Z,94245.47
2019-06-01T01:15:59.788Z,94196.62
2019-06-01T01:18:31.700Z,94218.97
2019-06-01T01:21:02.988Z,94286.86
2019-06-01T01:23:34.303Z,94311.50
2019-06-01T01:26:06.324Z,94359.00
2019-06-01T01:28:38.444Z,94383.14
2019-06-01T01:31:13.883Z,94412.33
2019-06-01T01:33:42.083Z,94448.06
2019-06-01T01:36:11.705Z,94437.78
2019-06-01T01:38:41.500Z,94432.36
2019-06-01T01:41:14.668Z,94443.22
2019-06-01T01:43:45.655Z,94416.89
2019-06-01T01:46:16.349Z,94421.37
2019-06-01T01:48:46.984Z,94431.30
2019-06-01T01:51:16.712Z,94367.52
2019-06-01T01:53:47.633Z,94233.83
2019-06-01T01:56:18.276Z,93972.79
2019-06-01T01:58:50.202Z,93819.88
2019-06-01T02:01:23.390Z,93778.09
2019-06-01T02:03:55.567Z,93731.89
2019-06-01T02:06:28.941Z,93748.38
2019-06-01T02:08:59.363Z,93766.34
2019-06-01T02:11:30.869Z,93598.09
2019-06-01T02:14:02.057Z,93540.63
2019-06-01T02:16:32.025Z,93526.97
2019-06-01T02:19:02.490Z,93441.44
2019-06-01T02:21:34.909Z,93356.02
2019-06-01T02:24:06.429Z,93344.94
2019-06-01T02:26:40.616Z,93468.83
2019-06-01T02:29:11.145Z,93502.88
2019-06-01T02:31:42.935Z,93481.92
2019-06-01T02:34:12.893Z,93581.81
2019-06-01T02:36:44.931Z,93693.56
2019-06-01T02:39:16.103Z,93721.39
2019-06-01T02:41:47.473Z,93758.61
2019-06-01T02:44:20.403Z,93814.83
2019-06-01T02:46:50.374Z,93996.14
2019-06-01T02:49:23.521Z,94159.61
2019-06-01T02:51:53.223Z,94275.99
2019-06-01T02:54:23.069Z,94368.82
2019-06-01T02:56:52.945Z,94365.34
2019-06-01T02:59:22.854Z,94439.63
2019-06-01T03:01:57.473Z,94510.97
2019-06-01T03:04:24.490Z,94587.14
2019-06-01T03:06:57.274Z,94628.66
2019-06-01T03:09:28.480Z,94673.18
2019-06-01T03:12:00.871Z,94706.29
2019-06-01T03:14:35.313Z,94740.72
2019-06-01T03:17:05.886Z,94786.16
2019-06-01T03:19:38.840Z,94816.05
2019-06-01T03:22:10.258Z,94823.77
2019-06-01T03:24:40.000Z,94846.45
2019-06-01T03:27:14.150Z,94855.56
2019-06-01T03:29:47.993Z,94834.66
2019-06-01T03:32:34.300Z,94812.87
2019-06-01T03:34:50.094Z,94808.09
2019-06-01T03:37:19.872Z,94780.00
2019-06-01T03:39:49.924Z,94763.74
2019-06-01T03:42:20.228Z,94739.52
2019-06-01T03:44:49.814Z,94749.41
2019-06-01T03:47:19.617Z,94696.83
2019-06-01T03:49:49.298Z,94689.80
2019-06-01T03:52:19.952Z,94682.16
2019-06-01T03:54:49.814Z,94673.31
2019-06-01T03:57:19.912Z,94663.19
2019-06-01T03:59:49.829Z,94649.47
2019-06-01T04:02:32.489Z,94625.85
2019-06-01T04:04:51.437Z,94616.34
2019-06-01T04:07:21.403Z,94637.37
2019-06-01T04:09:51.224Z,94637.56
2019-06-01T04:12:20.996Z,94627.86
2019-06-01T04:14:52.341Z,94619.89
2019-06-01T04:17:21.816Z,94578.17
2019-06-01T04:19:52.190Z,94499.27
2019-06-01T04:22:24.318Z,94364.62
2019-06-01T04:24:54.942Z,94143.45
2019-06-01T04:27:25.673Z,93991.08
2019-06-01T04:29:56.277Z,93830.33
2019-06-01T04:32:29.455Z,93643.55
2019-06-01T04:34:59.199Z,93516.00
2019-06-01T04:37:28.963Z,93428.64
2019-06-01T04:40:00.286Z,93363.61
2019-06-01T04:42:31.086Z,93312.91
2019-06-01T04:45:00.826Z,93301.34
2019-06-01T04:47:31.402Z,93282.59
2019-06-01T04:50:04.584Z,93245.96
2019-06-01T04:52:34.881Z,93210.30
2019-06-01T04:55:07.344Z,93041.87
2019-06-01T04:57:37.291Z,92983.77
2019-06-01T05:00:25.036Z,92993.91
2019-06-01T05:02:41.586Z,92960.70
2019-06-01T05:05:13.247Z,92912.36
2019-06-01T05:07:43.640Z,92865.10
2019-06-01T05:10:14.344Z,92715.66
2019-06-01T05:12:44.801Z,92438.41
2019-06-01T05:15:16.070Z,92048.16
2019-06-01T05:17:46.193Z,91757.66
2019-06-01T05:20:16.639Z,91516.12
2019-06-01T05:22:49.801Z,91224.25
2019-06-01T05:25:19.710Z,90776.85
2019-06-01T05:27:49.522Z,90422.06
2019-06-01T05:30:20.903Z,90031.49
2019-06-01T05:32:50.661Z,90031.49
2019-06-01T05:35:21.362Z,89817.53
2019-06-01T05:37:51.131Z,89603.29
2019-06-01T05:40:20.945Z,89852.69
2019-06-01T05:42:50.738Z,89716.17
2019-06-01T05:45:22.660Z,89468.45
2019-06-01T05:47:52.945Z,89614.61
2019-06-01T05:50:22.798Z,89551.70
2019-06-01T05:52:52.675Z,89422.43
2019-06-01T05:55:23.107Z,89277.41
2019-06-01T05:57:58.061Z,89345.70
2019-06-01T06:00:41.364Z,89254.31
2019-06-01T06:03:14.689Z,89147.56
2019-06-01T06:05:42.684Z,89040.30
2019-06-01T06:08:15.890Z,88729.50
2019-06-01T06:10:47.484Z,88188.91
2019-06-01T06:13:19.637Z,87250.42
2019-06-01T06:15:52.474Z,86019.30
2019-06-01T06:18:22.297Z,83808.61
2019-06-01T06:20:52.038Z,84028.81
2019-06-01T06:23:22.753Z,84367.92
2019-06-01T06:25:54.584Z,84635.86
2019-06-01T06:28:26.833Z,85687.67
2019-06-01T06:30:57.796Z,85926.25
2019-06-01T06:33:29.865Z,86359.38
2019-06-01T06:36:00.376Z,86340.68
2019-06-01T06:38:30.438Z,85977.64
2019-06-01T06:41:01.032Z,85129.99
2019-06-01T06:43:33.091Z,84693.32
2019-06-01T06:46:03.902Z,83475.23
2019-06-01T06:48:33.812Z,81962.19
2019-06-01T06:51:06.172Z,81816.35
2019-06-01T06:53:35.975Z,81819.97
2019-06-01T06:56:05.737Z,80933.86
2019-06-01T06:58:35.474Z,79827.63
2019-06-01T07:01:11.807Z,79019.96
2019-06-01T07:03:40.000Z,78528.07
2019-06-01T07:06:13.489Z,78220.19
2019-06-01T07:08:48.967Z,76827.53
2019-06-01T07:11:19.501Z,76851.82
2019-06-01T07:13:49.365Z,76632.65
2019-06-01T07:16:19.378Z,75400.01
2019-06-01T07:18:49.241Z,74300.22
2019-06-01T07:21:19.579Z,74510.36
2019-06-01T07:23:50.266Z,73961.11
2019-06-01T07:26:21.874Z,74681.48
2019-06-01T07:28:52.769Z,73931.52
2019-06-01T07:31:24.841Z,73489.80
2019-06-01T07:33:54.472Z,73252.91
2019-06-01T07:36:26.589Z,73617.11
2019-06-01T07:38:58.641Z,73265.34
2019-06-01T07:41:28.800Z,72958.78
2019-06-01T07:44:01.180Z,73391.77
2019-06-01T07:46:31.044Z,72875.88
2019-06-01T07:49:04.135Z,72839.63
2019-06-01T07:51:36.699Z,72609.50
2019-06-01T07:54:08.426Z,72807.22
2019-06-01T07:56:41.427Z,72999.14
2019-06-01T07:59:11.293Z,74424.49
2019-06-01T08:01:41.045Z,75550.69
2019-06-01T08:04:11.670Z,75784.12
2019-06-01T08:06:45.947Z,75101.45
2019-06-01T08:09:16.644Z,75391.02
2019-06-01T08:11:47.877Z,75950.95
2019-06-01T08:14:17.640Z,76239.45
2019-06-01T08:16:47.988Z,76895.67
2019-06-01T08:19:18.120Z,77917.95
2019-06-01T08:21:48.489Z,78330.25
2019-06-01T08:24:18.314Z,79408.13
2019-06-01T08:26:48.074Z,79896.95
2019-06-01T08:29:17.931Z,80024.11
2019-06-01T08:31:47.709Z,80107.17
2019-06-01T08:34:17.507Z,80259.92
2019-06-01T08:36:47.665Z,80675.09
2019-06-01T08:39:19.592Z,80898.83
2019-06-01T08:41:51.173Z,81166.75
2019-06-01T08:44:21.877Z,81148.30
2019-06-01T08:46:52.863Z,80950.91
2019-06-01T08:49:23.880Z,80568.31
2019-06-01T08:51:53.806Z,80172.14
2019-06-01T08:54:23.999Z,80111.53
2019-06-01T08:56:56.657Z,79500.95
2019-06-01T08:59:26.573Z,78622.66
2019-06-01T09:01:56.309Z,78223.13
2019-06-01T09:04:26.603Z,78433.98
2019-06-01T09:06:58.169Z,78949.31
2019-06-01T09:09:29.551Z,78761.80
2019-06-01T09:12:00.061Z,78923.48
2019-06-01T09:14:31.248Z,78275.10
2019-06-01T09:17:01.789Z,78092.44
2019-06-01T09:19:33.570Z,78132.59
2019-06-01T09:22:06.106Z,77469.69
2019-06-01T09:24:36.321Z,77112.69
2019-06-01T09:27:07.254Z,77203.27
2019-06-01T09:29:37.789Z,77853.91
2019-06-01T09:32:11.403Z,77878.28
2019-06-01T09:34:43.730Z,77577.42
2019-06-01T09:37:16.100Z,78542.08
2019-06-01T09:39:45.891Z,78879.24
2019-06-01T09:42:15.674Z,79104.66
2019-06-01T09:44:46.008Z,79187.00
2019-06-01T09:47:15.963Z,79656.19
2019-06-01T09:49:46.358Z,79465.81
2019-06-01T09:52:17.078Z,80011.92
2019-06-01T09:54:49.284Z,79890.02
2019-06-01T09:57:21.503Z,79766.52
2019-06-01T09:59:51.280Z,79334.13
2019-06-01T10:02:21.815Z,78597.05
2019-06-01T10:04:54.290Z,77658.30
2019-06-01T10:07:24.743Z,77662.59
2019-06-01T10:09:56.113Z,78116.91
2019-06-01T10:12:25.897Z,77913.31
2019-06-01T10:14:55.712Z,78313.12
2019-06-01T10:17:26.363Z,78283.69
2019-06-01T10:19:58.588Z,77242.45
2019-06-01T10:22:28.385Z,75842.20
2019-06-01T10:24:58.650Z,75512.86
2019-06-01T10:27:32.447Z,75559.81
2019-06-01T10:30:03.578Z,75640.22
2019-06-01T10:32:34.250Z,75146.05
2019-06-01T10:35:08.595Z,74865.03
2019-06-01T10:37:39.617Z,74593.42
2019-06-01T10:40:09.645Z,75362.09
2019-06-01T10:42:39.883Z,75832.04
2019-06-01T10:45:11.741Z,76964.00
2019-06-01T10:47:42.657Z,77447.47
2019-06-01T10:50:12.815Z,77230.91
2019-06-01T10:52:42.726Z,76981.61
2019-06-01T10:55:12.683Z,77240.57
2019-06-01T10:57:45.936Z,77789.13
2019-06-01T11:00:15.909Z,77399.26
2019-06-01T11:02:45.696Z,77577.72
2019-06-01T11:05:15.583Z,77183.06
2019-06-01T11:07:45.394Z,77021.72
2019-06-01T11:10:16.898Z,76073.61
2019-06-01T11:12:47.048Z,75112.66
2019-06-01T11:15:16.866Z,75978.83
2019-06-01T11:17:47.655Z,77150.17
2019-06-01T11:20:18.585Z,76874.58
2019-06-01T11:22:48.406Z,75847.23
2019-06-01T11:25:21.281Z,75443.89
2019-06-01T11:27:51.536Z,76112.41
2019-06-01T11:30:21.331Z,76630.97
2019-06-01T11:32:53.585Z,75546.76
2019-06-01T11:35:23.406Z,74462.16
2019-06-01T11:37:53.202Z,73829.19
2019-06-01T11:40:24.065Z,74323.03
2019-06-01T11:42:53.854Z,75484.59
2019-06-01T11:45:23.619Z,75805.55
2019-06-01T11:47:53.745Z,76005.48
2019-06-01T11:50:23.498Z,76099.16
2019-06-01T11:52:53.507Z,75683.65
2019-06-01T11:55:25.699Z,75432.70
2019-06-01T11:57:58.675Z,75366.33
2019-06-01T12:00:28.586Z,75352.45
2019-06-01T12:02:59.891Z,75865.42
2019-06-01T12:05:30.402Z,75932.52
2019-06-01T12:08:02.384Z,76435.95
2019-06-01T12:10:34.351Z,76469.25
2019-06-01T12:13:04.161Z,75738.10
2019-06-01T12:15:33.985Z,75191.48
2019-06-01T12:18:04.280Z,75111.83
2019-06-01T12:20:36.638Z,74390.81
2019-06-01T12:23:06.475Z,75357.14
2019-06-01T12:25:38.219Z,75346.95
2019-06-01T12:28:09.747Z,74965.77
2019-06-01T12:30:41.753Z,75045.19
2019-06-01T12:33:11.625Z,75275.91
2019-06-01T12:35:43.943Z,75307.02
2019-06-01T12:38:14.921Z,75123.09
2019-06-01T12:40:45.306Z,74890.98
2019-06-01T12:43:16.216Z,74862.80
2019-06-01T12:45:46.283Z,74798.57
2019-06-01T12:48:16.082Z,74673.53
2019-06-01T12:50:48.295Z,74185.13
2019-06-01T12:53:17.342Z,73742.02
2019-06-01T12:55:48.931Z,73556.17
2019-06-01T12:58:18.853Z,73674.63
2019-06-01T13:00:52.435Z,73658.30
2019-06-01T13:03:22.446Z,73870.91
2019-06-01T13:05:54.982Z,73947.75
2019-06-01T13:08:25.224Z,74211.23
2019-06-01T13:10:55.155Z,74697.64
2019-06-01T13:13:24.982Z,75069.44
2019-06-01T13:15:58.898Z,75771.33
2019-06-01T13:18:28.581Z,76433.23
2019-06-01T13:20:58.550Z,76677.81
2019-06-01T13:23:28.944Z,77080.13
2019-06-01T13:25:59.816Z,77306.89
2019-06-01T13:28:37.980Z,77611.41
2019-06-01T13:31:01.194Z,77486.45
2019-06-01T13:33:30.957Z,77341.44
2019-06-01T13:36:00.801Z,77043.02
2019-06-01T13:38:30.640Z,76564.33
2019-06-01T13:41:00.577Z,76022.61
2019-06-01T13:43:32.721Z,75368.89
2019-06-01T13:46:06.425Z,75338.43
2019-06-01T13:48:35.264Z,75945.27
2019-06-01T13:51:06.982Z,76288.20
2019-06-01T13:53:36.711Z,76290.67
2019-06-01T13:56:08.054Z,76462.80
2019-06-01T13:58:40.295Z,76309.28
2019-06-01T14:01:10.851Z,76319.99
2019-06-01T14:03:43.218Z,76159.73
2019-06-01T14:06:16.260Z,75573.61
2019-06-01T14:08:46.866Z,74862.20
2019-06-01T14:11:17.658Z,74752.52
2019-06-01T14:13:47.517Z,74857.30
2019-06-01T14:16:17.438Z,75140.69
2019-06-01T14:18:47.663Z,75571.59
2019-06-01T14:21:17.455Z,76029.66
2019-06-01T14:23:47.679Z,76387.88
2019-06-01T14:26:17.635Z,76451.95
2019-06-01T14:28:48.133Z,76622.84
2019-06-01T14:31:18.199Z,76755.73
2019-06-01T14:33:48.437Z,77278.92
2019-06-01T14:36:18.592Z,77553.09
2019-06-01T14:38:50.537Z,77347.30
2019-06-01T14:41:21.379Z,77181.89
2019-06-01T14:43:53.669Z,77353.03
2019-06-01T14:46:24.653Z,77244.18
2019-06-01T14:48:55.747Z,76877.65
2019-06-01T14:51:28.671Z,76950.25
2019-06-01T14:53:59.832Z,76466.81
2019-06-01T14:56:31.793Z,76085.42
2019-06-01T14:59:02.530Z,76281.81
2019-06-01T15:01:34.531Z,76425.17
2019-06-01T15:04:06.478Z,76550.25
2019-06-01T15:06:37.167Z,76526.70
2019-06-01T15:09:18.368Z,76712.02
2019-06-01T15:11:43.226Z,76738.77
2019-06-01T15:14:13.899Z,76973.89
2019-06-01T15:16:43.493Z,77225.47
2019-06-01T15:19:13.333Z,77313.70
2019-06-01T15:21:44.044Z,77142.83
2019-06-01T15:24:14.449Z,77440.92
2019-06-01T15:26:46.094Z,77477.87
2019-06-01T15:29:19.100Z,77246.63
2019-06-01T15:31:48.966Z,77213.63
2019-06-01T15:34:18.958Z,77437.88
2019-06-01T15:36:49.934Z,77390.65
2019-06-01T15:39:24.607Z,77500.64
2019-06-01T15:41:51.450Z,77782.05
2019-06-01T15:44:23.323Z,77726.74
2019-06-01T15:46:55.547Z,78401.80
2019-06-01T15:49:25.534Z,78712.50
2019-06-01T15:51:55.852Z,78487.31
2019-06-01T15:54:28.320Z,78539.38
2019-06-01T15:56:58.468Z,78489.43
2019-06-01T15:59:31.511Z,78537.23
2019-06-01T16:02:01.429Z,78070.80
2019-06-01T16:04:31.264Z,78184.30
2019-06-01T16:07:01.458Z,77991.95
2019-06-01T16:09:42.080Z,77836.41
2019-06-01T16:12:04.820Z,77842.59
2019-06-01T16:14:34.617Z,77723.16
2019-06-01T16:17:06.017Z,77422.25
2019-06-01T16:19:35.926Z,77403.03
2019-06-01T16:22:05.692Z,77763.77
2019-06-01T16:24:35.484Z,77930.23
2019-06-01T16:27:05.266Z,77428.56
2019-06-01T16:29:35.014Z,77677.11
2019-06-01T16:32:05.135Z,78080.30
2019-06-01T16:34:37.670Z,78119.96
2019-06-01T16:37:07.559Z,78726.24
2019-06-01T16:39:38.050Z,79039.50
2019-06-01T16:42:10.206Z,78950.84
2019-06-01T16:44:40.692Z,78589.16
2019-06-01T16:47:10.633Z,78644.00
2019-06-01T16:49:40.586Z,78887.41
2019-06-01T16:52:12.215Z,78790.21
2019-06-01T16:54:42.291Z,78653.70
2019-06-01T16:57:14.813Z,79228.50
2019-06-01T16:59:45.747Z,79845.14
2019-06-01T17:02:18.834Z,80281.83
2019-06-01T17:04:48.980Z,80582.05
2019-06-01T17:07:20.937Z,80789.20
2019-06-01T17:09:50.751Z,80872.75
2019-06-01T17:12:21.116Z,80803.86
2019-06-01T17:14:50.978Z,80790.50
2019-06-01T17:17:21.259Z,80862.41
2019-06-01T17:19:51.013Z,81022.81
2019-06-01T17:22:22.005Z,81274.06
2019-06-01T17:24:52.685Z,81478.54
2019-06-01T17:27:22.423Z,81636.66
2019-06-01T17:29:52.080Z,81750.19
2019-06-01T17:32:25.033Z,81880.42
2019-06-01T17:34:55.046Z,82085.57
2019-06-01T17:37:25.775Z,82269.25
2019-06-01T17:39:55.522Z,82469.25
2019-06-01T17:42:25.236Z,82616.28
2019-06-01T17:44:56.016Z,82771.98
2019-06-01T17:47:27.265Z,82922.47
2019-06-01T17:49:58.201Z,83104.04
2019-06-01T17:52:28.265Z,83327.30
2019-06-01T17:54:58.099Z,83552.52
2019-06-01T17:57:28.420Z,83758.77
2019-06-01T17:59:58.281Z,83957.69
2019-06-01T18:02:29.831Z,84093.99
2019-06-01T18:04:59.429Z,84215.51
2019-06-01T18:07:29.352Z,84323.98
2019-06-01T18:10:02.448Z,84434.08
2019-06-01T18:12:32.421Z,84536.74
2019-06-01T18:15:02.323Z,84643.64
2019-06-01T18:17:32.410Z,84769.69
2019-06-01T18:20:02.493Z,84888.13
2019-06-01T18:22:32.528Z,84991.37
2019-06-01T18:25:02.559Z,85094.06
2019-06-01T18:27:33.373Z,85208.45
2019-06-01T18:30:04.651Z,85331.59
2019-06-01T18:32:34.555Z,85466.70
2019-06-01T18:35:09.325Z,85580.85
2019-06-01T18:37:41.235Z,85685.77
2019-06-01T18:40:13.846Z,85746.58
2019-06-01T18:42:45.241Z,85823.13
2019-06-01T18:45:17.141Z,85903.41
2019-06-01T18:47:47.986Z,86035.69
2019-06-01T18:50:20.090Z,86143.85
2019-06-01T18:52:51.217Z,86311.68
2019-06-01T18:55:27.494Z,86472.22
2019-06-01T18:57:59.520Z,86452.59
2019-06-01T19:00:29.374Z,86662.70
2019-06-01T19:02:59.448Z,86798.59
2019-06-01T19:05:29.887Z,86848.45
2019-06-01T19:08:01.956Z,86846.23
2019-06-01T19:10:32.758Z,86875.95
2019-06-01T19:13:06.009Z,86877.30
2019-06-01T19:15:36.352Z,86887.32
2019-06-01T19:18:16.824Z,86901.70
2019-06-01T19:20:51.854Z,86918.88
2019-06-01T19:23:23.135Z,86952.65
2019-06-01T19:25:57.417Z,87045.58
2019-06-01T19:28:27.290Z,87173.86
2019-06-01T19:30:59.707Z,87228.93
2019-06-01T19:33:30.087Z,87270.92
2019-06-01T19:36:03.847Z,87292.38
2019-06-01T19:38:37.164Z,87294.80
2019-06-01T19:41:11.317Z,87318.00
2019-06-01T19:43:46.868Z,87379.86
2019-06-01T19:46:21.721Z,87405.92
2019-06-01T19:48:51.638Z,87444.52
2019-06-01T19:51:30.669Z,87532.20
2019-06-01T19:54:00.431Z,87653.42
2019-06-01T19:56:30.532Z,87737.05
2019-06-01T19:59:00.724Z,87831.78
2019-06-01T20:01:31.842Z,87913.81
2019-06-01T20:04:03.409Z,87868.73
2019-06-01T20:06:37.596Z,87688.95
2019-06-01T20:12:02.554Z,87165.97
2019-06-01T20:14:31.388Z,86988.04
2019-06-01T20:17:02.301Z,86855.13
2019-06-01T20:19:33.704Z,86751.18
2019-06-01T20:22:06.710Z,86730.59
2019-06-01T20:24:40.355Z,86887.70
2019-06-01T20:27:11.333Z,87160.82
2019-06-01T20:29:44.739Z,87407.11
2019-06-01T20:32:15.946Z,87590.80
2019-06-01T20:34:46.598Z,87718.59
2019-06-01T20:37:16.494Z,87763.41
2019-06-01T20:39:48.264Z,87884.25
2019-06-01T20:42:31.356Z,87988.19
2019-06-01T20:44:54.624Z,88095.17
2019-06-01T20:47:26.723Z,88171.89
2019-06-01T20:49:57.073Z,88206.91
2019-06-01T20:52:28.134Z,88251.30
2019-06-01T20:55:00.035Z,88337.28
2019-06-01T20:57:30.813Z,88439.13
2019-06-01T21:00:01.385Z,88509.69
2019-06-01T21:02:32.229Z,88574.42
2019-06-01T21:05:03.179Z,88630.17
2019-06-01T21:07:33.870Z,88747.16
2019-06-01T21:10:06.860Z,88809.37
2019-06-01T21:12:45.476Z,88956.27
2019-06-01T21:15:11.714Z,89060.14
2019-06-01T21:17:44.809Z,89062.37
2019-06-01T21:20:23.289Z,89142.66
2019-06-01T21:22:47.857Z,89283.11
2019-06-01T21:25:18.817Z,89283.11
2019-06-01T21:27:50.738Z,89352.85
2019-06-01T21:30:23.941Z,89327.23
2019-06-01T21:32:56.017Z,89370.95
2019-06-01T21:35:26.533Z,89348.08
2019-06-01T21:37:56.923Z,89373.17
2019-06-01T21:40:26.917Z,89430.76
2019-06-01T21:43:07.343Z,89430.76
2019-06-01T21:45:32.455Z,89443.30
2019-06-01T21:48:03.151Z,89466.86
2019-06-01T21:50:35.501Z,89442.84
2019-06-01T21:53:05.377Z,89430.13
2019-06-01T21:55:35.431Z,89480.84
2019-06-01T21:58:06.193Z,89480.84
2019-06-01T22:00:41.394Z,89519.94
2019-06-01T22:03:13.938Z,89532.47
2019-06-01T22:05:46.197Z,89635.91
2019-06-01T22:08:17.189Z,89635.91
2019-06-01T22:10:47.307Z,89763.53
2019-06-01T22:13:20.889Z,89900.97
2019-06-01T22:15:52.475Z,89997.64
2019-06-01T22:18:23.671Z,90049.99
2019-06-01T22:20:53.817Z,90114.30
2019-06-01T22:23:26.078Z,90181.34
2019-06-01T22:25:58.834Z,90181.34
2019-06-01T22:28:28.833Z,90239.49
2019-06-01T22:30:58.822Z,90273.02
2019-06-01T22:33:30.344Z,90263.93
2019-06-01T22:36:00.109Z,90304.42
2019-06-01T22:38:29.975Z,90339.95
2019-06-01T22:40:59.798Z,90419.31
2019-06-01T22:43:43.558Z,90529.09
2019-06-01T22:46:04.758Z,90640.39
2019-06-01T22:48:38.023Z,90738.86
2019-06-01T22:51:09.785Z,90812.83
2019-06-01T22:53:40.377Z,90859.46
2019-06-01T22:56:10.064Z,90888.19
2019-06-01T22:58:40.015Z,90902.53
2019-06-01T23:01:09.855Z,90902.53
2019-06-01T23:03:41.514Z,90930.34
2019-06-01T23:06:11.354Z,90872.15
2019-06-01T23:08:43.979Z,90828.52
2019-06-01T23:11:17.047Z,90762.00
2019-06-01T23:13:53.317Z,90721.54
2019-06-01T23:16:19.711Z,90618.66
2019-06-01T23:18:50.090Z,90609.25
2019-06-01T23:21:20.123Z,90481.50
2019-06-01T23:23:49.955Z,90508.65
2019-06-01T23:26:22.154Z,90493.97
2019-06-01T23:28:54.361Z,90464.84
2019-06-01T23:31:26.181Z,90464.84
2019-06-01T23:33:56.036Z,90515.64
2019-06-01T23:36:26.518Z,90557.30
2019-06-01T23:38:59.614Z,90565.15
2019-06-01T23:41:30.746Z,90629.67
2019-06-01T23:44:11.792Z,90690.45
2019-06-01T23:46:33.525Z,90735.70
2019-06-01T23:49:06.911Z,90748.34
2019-06-01T23:51:36.791Z,90797.89
2019-06-01T23:54:07.322Z,90814.64
2019-06-01T23:56:37.540Z,90831.36
2019-06-01T23:59:07.294Z,90849.23
